createdAt,value
2023-04-22T00:01:24.605Z,4.47
2023-04-22T00:03:27.844Z,3.33
2023-04-22T00:05:30.793Z,3.30
2023-04-22T00:07:33.670Z,4.07
2023-04-22T00:09:36.603Z,4.20
2023-04-22T00:11:40.801Z,3.57
2023-04-22T00:13:43.913Z,4.10
2023-04-22T00:15:46.665Z,3.47
2023-04-22T00:17:49.448Z,3.17
2023-04-22T00:19:52.845Z,3.60
2023-04-22T00:21:55.654Z,3.93
2023-04-22T00:23:58.381Z,3.90
2023-04-22T00:26:01.670Z,3.60
2023-04-22T00:28:05.873Z,3.53
2023-04-22T00:30:09.859Z,3.40
2023-04-22T00:32:12.602Z,3.97
2023-04-22T00:34:17.688Z,2.95
2023-04-22T00:36:20.417Z,2.83
2023-04-22T00:38:23.262Z,3.13
2023-04-22T00:40:25.998Z,3.07
2023-04-22T00:42:29.370Z,2.90
2023-04-22T00:44:33.693Z,3.53
2023-04-22T00:46:38.687Z,3.20
2023-04-22T00:48:42.303Z,2.90
2023-04-22T00:50:45.100Z,3.10
2023-04-22T00:52:48.101Z,3.20
2023-04-22T00:54:51.098Z,2.93
2023-04-22T00:56:53.979Z,3.13
2023-04-22T00:58:58.971Z,3.00
2023-04-22T01:01:03.900Z,3.03
2023-04-22T01:03:08.396Z,3.40
2023-04-22T01:05:11.392Z,3.60
2023-04-22T01:07:14.172Z,3.10
2023-04-22T01:09:17.067Z,3.40
2023-04-22T01:11:19.953Z,3.10
2023-04-22T01:13:22.670Z,3.17
2023-04-22T01:15:26.678Z,3.10
2023-04-22T01:17:31.866Z,3.05
2023-04-22T01:19:35.490Z,5.25
2023-04-22T01:21:40.732Z,4.47
2023-04-22T01:23:45.113Z,5.00
2023-04-22T01:25:48.684Z,4.50
2023-04-22T01:27:51.808Z,3.10
2023-04-22T01:29:54.713Z,3.23
2023-04-22T01:31:58.308Z,3.03
2023-04-22T01:34:01.327Z,3.08
2023-04-22T01:36:04.817Z,2.97
2023-04-22T01:38:09.207Z,2.90
2023-04-22T01:40:14.891Z,2.80
2023-04-22T01:42:18.653Z,3.13
2023-04-22T01:44:22.060Z,2.80
2023-04-22T01:46:26.132Z,2.60
2023-04-22T01:48:29.396Z,2.80
2023-04-22T01:50:32.186Z,2.63
2023-04-22T01:52:34.928Z,2.88
2023-04-22T01:54:37.820Z,2.88
2023-04-22T01:56:43.996Z,2.80
2023-04-22T01:58:46.764Z,2.83
2023-04-22T02:00:50.247Z,2.80
2023-04-22T02:02:53.095Z,2.88
2023-04-22T02:04:55.951Z,2.67
2023-04-22T02:06:58.774Z,2.80
2023-04-22T02:09:01.676Z,2.75
2023-04-22T02:11:04.623Z,2.80
2023-04-22T02:13:08.714Z,2.60
2023-04-22T02:15:13.192Z,2.72
2023-04-22T02:17:17.788Z,2.70
2023-04-22T02:19:21.886Z,2.70
2023-04-22T02:21:24.706Z,2.50
2023-04-22T02:23:28.402Z,2.60
2023-04-22T02:25:32.008Z,2.65
2023-04-22T02:27:34.863Z,2.85
2023-04-22T02:29:39.508Z,2.60
2023-04-22T02:31:43.444Z,2.70
2023-04-22T02:33:46.327Z,2.80
2023-04-22T02:35:49.045Z,2.70
2023-04-22T02:37:54.412Z,2.70
2023-04-22T02:39:59.474Z,2.50
2023-04-22T02:42:02.948Z,3.20
2023-04-22T02:44:06.516Z,2.60
2023-04-22T02:46:13.047Z,2.70
2023-04-22T02:48:16.620Z,3.10
2023-04-22T02:50:19.621Z,2.90
2023-04-22T02:52:22.395Z,2.90
2023-04-22T02:54:25.164Z,2.70
2023-04-22T02:56:28.252Z,2.97
2023-04-22T02:58:31.110Z,3.03
2023-04-22T03:00:34.097Z,3.03
2023-04-22T03:02:38.533Z,2.80
2023-04-22T03:04:48.052Z,2.78
2023-04-22T03:06:51.158Z,2.90
2023-04-22T03:08:54.174Z,2.90
2023-04-22T03:10:56.915Z,2.90
2023-04-22T03:12:59.661Z,2.80
2023-04-22T03:15:02.379Z,3.10
2023-04-22T03:17:07.487Z,2.90
2023-04-22T03:19:12.147Z,3.10
2023-04-22T03:21:14.874Z,2.78
2023-04-22T03:23:17.666Z,3.17
2023-04-22T03:25:21.268Z,3.15
2023-04-22T03:27:28.434Z,2.65
2023-04-22T03:29:31.458Z,3.00
2023-04-22T03:31:34.919Z,2.97
2023-04-22T03:33:37.744Z,3.17
2023-04-22T03:35:50.277Z,3.72
2023-04-22T03:37:53.500Z,3.53
2023-04-22T03:40:05.744Z,3.45
2023-04-22T03:42:08.855Z,3.53
2023-04-22T03:44:16.780Z,3.20
2023-04-22T03:46:21.364Z,3.17
2023-04-22T03:48:35.988Z,2.90
2023-04-22T03:50:44.282Z,2.85
2023-04-22T03:52:48.349Z,3.05
2023-04-22T03:54:55.085Z,3.10
2023-04-22T03:56:58.053Z,3.08
2023-04-22T03:59:01.991Z,2.97
2023-04-22T04:01:05.522Z,2.85
2023-04-22T04:03:08.927Z,3.25
2023-04-22T04:05:12.227Z,3.15
2023-04-22T04:07:16.126Z,3.58
2023-04-22T04:09:20.131Z,3.72
2023-04-22T04:11:22.988Z,4.30
2023-04-22T04:13:26.479Z,3.55
2023-04-22T04:15:47.216Z,3.85
2023-04-22T04:17:52.576Z,3.88
2023-04-22T04:19:56.839Z,3.85
2023-04-22T04:22:00.761Z,3.80
2023-04-22T04:24:10.173Z,3.90
2023-04-22T04:26:20.464Z,3.83
2023-04-22T04:28:29.622Z,3.60
2023-04-22T04:30:33.644Z,3.88
2023-04-22T04:32:40.249Z,4.40
2023-04-22T04:34:45.692Z,4.13
2023-04-22T04:36:50.636Z,4.60
2023-04-22T04:38:59.456Z,4.80
2023-04-22T04:41:03.965Z,4.30
2023-04-22T04:43:09.180Z,5.00
2023-04-22T04:45:20.145Z,5.20
2023-04-22T04:47:24.925Z,5.03
2023-04-22T04:49:32.576Z,6.22
2023-04-22T04:51:37.780Z,5.40
2023-04-22T04:53:41.495Z,5.07
2023-04-22T04:55:44.293Z,4.78
2023-04-22T04:57:56.638Z,4.47
2023-04-22T05:00:01.548Z,4.03
2023-04-22T05:02:04.461Z,4.43
2023-04-22T05:04:07.581Z,4.60
2023-04-22T05:06:12.852Z,4.53
2023-04-22T05:08:19.543Z,6.10
2023-04-22T05:10:25.076Z,10.98
2023-04-22T05:12:28.138Z,8.30
2023-04-22T05:14:31.587Z,5.10
2023-04-22T05:16:36.045Z,3.38
2023-04-22T05:18:40.620Z,3.38
2023-04-22T05:20:45.571Z,4.18
2023-04-22T05:22:48.943Z,4.00
2023-04-22T05:24:52.854Z,3.78
2023-04-22T05:26:57.381Z,4.07
2023-04-22T05:29:00.198Z,3.83
2023-04-22T05:31:02.929Z,4.10
2023-04-22T05:33:08.588Z,3.75
2023-04-22T05:35:11.905Z,4.70
2023-04-22T05:37:15.723Z,3.70
2023-04-22T05:39:19.967Z,3.85
2023-04-22T05:41:22.723Z,4.20
2023-04-22T05:43:25.750Z,4.93
2023-04-22T05:45:35.469Z,4.03
2023-04-22T05:47:40.766Z,3.78
2023-04-22T05:49:45.362Z,3.55
2023-04-22T05:51:55.415Z,3.88
2023-04-22T05:54:02.875Z,4.90
2023-04-22T05:56:06.306Z,4.03
2023-04-22T05:58:09.554Z,4.97
2023-04-22T06:00:22.921Z,4.20
2023-04-22T06:02:39.758Z,4.18
2023-04-22T06:04:43.397Z,3.97
2023-04-22T06:06:48.407Z,4.10
2023-04-22T06:08:51.150Z,4.10
2023-04-22T06:10:54.005Z,3.85
2023-04-22T06:12:57.730Z,4.00
2023-04-22T06:15:00.723Z,3.90
2023-04-22T06:17:04.932Z,4.20
2023-04-22T06:19:08.064Z,3.75
2023-04-22T06:21:11.528Z,4.18
2023-04-22T06:23:15.662Z,3.88
2023-04-22T06:25:18.482Z,3.35
2023-04-22T06:27:21.200Z,3.90
2023-04-22T06:29:24.086Z,3.90
2023-04-22T06:31:26.869Z,3.35
2023-04-22T06:33:29.705Z,4.07
2023-04-22T06:35:32.623Z,3.80
2023-04-22T06:37:36.798Z,3.58
2023-04-22T06:39:43.394Z,3.53
2023-04-22T06:42:06.506Z,3.60
2023-04-22T06:44:27.904Z,3.60
2023-04-22T06:46:55.851Z,3.67
2023-04-22T06:49:15.034Z,3.40
2023-04-22T06:51:23.736Z,3.30
2023-04-22T06:53:26.662Z,3.70
2023-04-22T06:55:30.895Z,3.53
2023-04-22T06:57:33.650Z,3.42
2023-04-22T06:59:36.554Z,3.25
2023-04-22T07:01:39.460Z,2.93
2023-04-22T07:03:42.682Z,3.00
2023-04-22T07:05:49.992Z,3.10
2023-04-22T07:07:52.759Z,3.10
2023-04-22T07:09:57.989Z,2.93
2023-04-22T07:12:07.049Z,3.53
2023-04-22T07:14:09.774Z,4.57
2023-04-22T07:16:12.619Z,5.50
2023-04-22T07:18:15.433Z,5.23
2023-04-22T07:20:18.117Z,5.20
2023-04-22T07:22:20.837Z,4.40
2023-04-22T07:24:23.660Z,2.97
2023-04-22T07:26:26.660Z,3.30
2023-04-22T07:28:31.101Z,3.30
2023-04-22T07:30:34.029Z,3.87
2023-04-22T07:32:36.811Z,3.27
2023-04-22T07:34:39.615Z,3.43
2023-04-22T07:36:42.616Z,3.30
2023-04-22T07:38:45.347Z,2.77
2023-04-22T07:40:48.016Z,3.03
2023-04-22T07:42:50.788Z,2.80
2023-04-22T07:44:54.885Z,3.00
2023-04-22T07:46:57.610Z,3.13
2023-04-22T07:49:00.279Z,3.10
2023-04-22T07:51:03.035Z,3.00
2023-04-22T07:53:05.985Z,3.07
2023-04-22T07:55:09.829Z,2.87
2023-04-22T07:57:12.497Z,2.60
2023-04-22T07:59:15.317Z,2.40
2023-04-22T08:01:20.226Z,2.50
2023-04-22T08:03:24.823Z,2.30
2023-04-22T08:05:27.815Z,2.13
2023-04-22T08:07:33.523Z,2.10
2023-04-22T08:09:36.522Z,2.10
2023-04-22T08:11:39.297Z,2.20
2023-04-22T08:13:42.003Z,1.80
2023-04-22T08:15:44.771Z,1.90
2023-04-22T08:17:49.132Z,2.17
2023-04-22T08:19:51.917Z,2.10
2023-04-22T08:21:55.156Z,2.20
2023-04-22T08:23:57.922Z,2.20
2023-04-22T08:26:00.708Z,2.40
2023-04-22T08:28:03.489Z,2.00
2023-04-22T08:30:07.869Z,1.90
2023-04-22T08:32:10.628Z,2.13
2023-04-22T08:34:14.763Z,2.27
2023-04-22T08:36:17.643Z,2.40
2023-04-22T08:38:20.420Z,2.40
2023-04-22T08:40:23.195Z,2.20
2023-04-22T08:42:26.350Z,2.20
2023-04-22T08:44:30.653Z,2.53
2023-04-22T08:46:34.418Z,3.53
2023-04-22T08:48:38.443Z,2.47
2023-04-22T08:50:42.596Z,3.47
2023-04-22T08:52:46.462Z,3.00
2023-04-22T08:54:49.210Z,3.00
2023-04-22T08:56:52.316Z,2.53
2023-04-22T08:58:55.850Z,2.80
2023-04-22T09:00:58.920Z,2.57
2023-04-22T09:03:03.420Z,2.70
2023-04-22T09:05:07.785Z,3.20
2023-04-22T09:07:15.236Z,3.10
2023-04-22T09:09:18.406Z,3.37
2023-04-22T09:11:21.171Z,2.60
2023-04-22T09:13:25.158Z,2.50
2023-04-22T09:15:27.875Z,3.20
2023-04-22T09:17:34.644Z,2.30
2023-04-22T09:19:37.763Z,2.77
2023-04-22T09:21:41.164Z,2.30
2023-04-22T09:23:50.355Z,3.10
2023-04-22T09:25:53.106Z,2.80
2023-04-22T09:27:57.598Z,2.80
2023-04-22T09:30:00.337Z,3.40
2023-04-22T09:32:11.250Z,1.80
2023-04-22T09:34:15.116Z,1.50
2023-04-22T09:36:17.840Z,2.38
2023-04-22T09:38:21.637Z,2.30
2023-04-22T09:40:26.680Z,2.20
2023-04-22T09:42:29.426Z,2.10
2023-04-22T09:44:35.216Z,2.20
2023-04-22T09:46:37.970Z,2.33
2023-04-22T09:48:43.809Z,2.60
2023-04-22T09:50:48.992Z,2.73
2023-04-22T09:52:56.886Z,3.10
2023-04-22T09:54:59.618Z,2.88
2023-04-22T09:57:04.780Z,2.70
2023-04-22T09:59:08.795Z,2.80
2023-04-22T10:01:11.938Z,2.40
2023-04-22T10:03:15.028Z,2.50
2023-04-22T10:05:18.282Z,2.50
2023-04-22T10:07:21.225Z,2.20
2023-04-22T10:09:26.259Z,2.37
2023-04-22T10:11:29.323Z,2.17
2023-04-22T10:13:33.407Z,2.23
2023-04-22T10:15:39.788Z,1.80
2023-04-22T10:17:45.335Z,2.20
2023-04-22T10:19:49.024Z,2.20
2023-04-22T10:21:55.586Z,2.53
2023-04-22T10:24:00.023Z,2.20
2023-04-22T10:26:02.880Z,2.20
2023-04-22T10:28:07.300Z,2.30
2023-04-22T10:30:12.968Z,2.37
2023-04-22T10:32:26.816Z,2.30
2023-04-22T10:34:32.423Z,2.63
2023-04-22T10:36:35.243Z,2.40
2023-04-22T10:38:39.375Z,1.90
2023-04-22T10:41:00.189Z,1.90
2023-04-22T10:43:03.643Z,2.40
2023-04-22T10:45:07.612Z,2.13
2023-04-22T10:47:11.785Z,1.90
2023-04-22T10:49:20.539Z,1.90
2023-04-22T10:51:39.901Z,1.73
2023-04-22T10:53:43.851Z,2.00
2023-04-22T10:55:51.635Z,1.83
2023-04-22T10:57:54.962Z,1.93
2023-04-22T10:59:59.004Z,2.10
2023-04-22T11:02:02.728Z,2.13
2023-04-22T11:06:35.767Z,1.97
2023-04-22T11:08:38.509Z,1.70
2023-04-22T11:10:44.585Z,1.90
2023-04-22T11:12:50.646Z,1.53
2023-04-22T11:14:54.176Z,1.80
2023-04-22T11:16:57.488Z,2.10
2023-04-22T11:19:00.760Z,1.87
2023-04-22T11:21:06.434Z,1.93
2023-04-22T11:23:10.754Z,2.30
2023-04-22T11:25:14.576Z,1.80
2023-04-22T11:27:26.054Z,1.70
2023-04-22T11:29:28.765Z,1.40
2023-04-22T11:31:31.630Z,1.67
2023-04-22T11:33:35.460Z,2.00
2023-04-22T11:35:39.577Z,1.63
2023-04-22T11:37:43.057Z,1.50
2023-04-22T11:40:07.739Z,1.90
2023-04-22T11:42:09.830Z,1.47
2023-04-22T11:44:15.588Z,1.70
2023-04-22T11:46:29.630Z,1.50
2023-04-22T11:48:32.561Z,1.57
2023-04-22T11:50:37.126Z,1.47
2023-04-22T11:52:48.932Z,1.83
2023-04-22T11:54:53.365Z,1.70
2023-04-22T11:56:56.171Z,1.80
2023-04-22T11:58:58.936Z,1.70
2023-04-22T12:01:01.745Z,1.80
2023-04-22T12:03:05.952Z,1.70
2023-04-22T12:05:11.624Z,1.90
2023-04-22T12:07:16.333Z,1.60
2023-04-22T12:09:19.248Z,1.50
2023-04-22T12:11:23.369Z,1.70
2023-04-22T12:13:27.179Z,2.40
2023-04-22T12:15:43.038Z,1.50
2023-04-22T12:17:45.917Z,1.73
2023-04-22T12:19:48.869Z,1.67
2023-04-22T12:21:51.641Z,1.70
2023-04-22T12:23:55.442Z,1.83
2023-04-22T12:25:58.550Z,1.70
2023-04-22T12:28:02.753Z,1.77
2023-04-22T12:30:07.508Z,1.90
2023-04-22T12:32:10.227Z,1.60
2023-04-22T12:34:13.274Z,1.80
2023-04-22T12:36:16.101Z,1.70
2023-04-22T12:38:18.831Z,1.90
2023-04-22T12:40:21.899Z,1.60
2023-04-22T12:42:24.678Z,1.83
2023-04-22T12:44:28.740Z,1.70
2023-04-22T12:46:31.576Z,2.70
2023-04-22T12:48:35.976Z,3.57
2023-04-22T12:50:38.575Z,4.00
2023-04-22T12:52:41.443Z,1.83
2023-04-22T12:54:44.291Z,1.80
2023-04-22T12:56:48.011Z,1.87
2023-04-22T12:58:50.727Z,1.60
2023-04-22T13:00:54.893Z,1.60
2023-04-22T13:02:58.008Z,2.40
2023-04-22T13:05:00.832Z,2.00
2023-04-22T13:07:03.619Z,1.70
2023-04-22T13:09:06.964Z,2.23
2023-04-22T13:11:09.834Z,1.90
2023-04-22T13:15:19.299Z,1.90
2023-04-22T13:17:23.563Z,1.80
2023-04-22T13:19:27.066Z,1.97
2023-04-22T13:21:29.782Z,1.83
2023-04-22T13:23:32.633Z,1.77
2023-04-22T13:25:36.133Z,2.17
2023-04-22T13:27:39.062Z,1.60
2023-04-22T13:29:42.392Z,1.70
2023-04-22T13:31:45.603Z,1.83
2023-04-22T13:33:49.744Z,1.87
2023-04-22T13:35:52.441Z,1.90
2023-04-22T13:37:55.175Z,2.13
2023-04-22T13:39:57.848Z,1.80
2023-04-22T13:42:01.558Z,1.80
2023-04-22T13:44:10.348Z,3.17
2023-04-22T13:46:13.048Z,3.23
2023-04-22T13:48:16.051Z,3.23
2023-04-22T13:50:20.112Z,2.07
2023-04-22T13:52:22.814Z,2.27
2023-04-22T13:54:26.079Z,2.20
2023-04-22T13:56:28.871Z,3.47
2023-04-22T13:58:32.215Z,1.80
2023-04-22T14:00:35.670Z,1.80
2023-04-22T14:02:38.478Z,1.90
2023-04-22T14:04:41.216Z,2.00
2023-04-22T14:06:45.303Z,2.00
2023-04-22T14:08:48.178Z,2.97
2023-04-22T14:10:50.855Z,1.80
2023-04-22T14:12:53.597Z,2.30
2023-04-22T14:14:56.334Z,2.90
2023-04-22T14:16:59.598Z,2.10
2023-04-22T14:19:06.090Z,2.40
2023-04-22T14:21:10.258Z,2.17
2023-04-22T14:23:14.378Z,2.33
2023-04-22T14:25:17.103Z,2.27
2023-04-22T14:27:19.753Z,2.13
2023-04-22T14:29:22.931Z,2.10
2023-04-22T14:31:25.911Z,2.60
2023-04-22T14:33:29.126Z,1.73
2023-04-22T14:35:31.806Z,2.17
2023-04-22T14:37:35.677Z,2.00
2023-04-22T14:39:40.054Z,2.33
2023-04-22T14:41:43.039Z,1.80
2023-04-22T14:43:46.898Z,2.17
2023-04-22T14:45:49.587Z,2.17
2023-04-22T14:47:52.396Z,4.80
2023-04-22T14:49:55.178Z,1.77
2023-04-22T14:52:00.754Z,5.53
2023-04-22T14:54:03.530Z,3.83
2023-04-22T14:56:07.671Z,8.60
2023-04-22T14:58:10.651Z,7.30
2023-04-22T15:00:14.565Z,15.20
2023-04-22T15:02:17.816Z,3.07
2023-04-22T15:04:20.612Z,3.10
2023-04-22T15:06:24.052Z,2.70
2023-04-22T15:08:26.843Z,3.73
2023-04-22T15:10:29.661Z,2.83
2023-04-22T15:12:33.747Z,2.23
2023-04-22T15:14:37.080Z,3.10
2023-04-22T15:16:39.792Z,3.60
2023-04-22T15:18:42.985Z,2.20
2023-04-22T15:20:45.778Z,3.60
2023-04-22T15:22:49.631Z,3.30
2023-04-22T15:24:52.737Z,5.57
2023-04-22T15:26:55.598Z,4.00
2023-04-22T15:29:00.995Z,3.10
2023-04-22T15:31:04.253Z,5.37
2023-04-22T15:33:07.116Z,2.50
2023-04-22T15:35:10.105Z,13.13
2023-04-22T15:37:14.636Z,6.40
2023-04-22T15:39:17.630Z,3.50
2023-04-22T15:41:20.579Z,6.37
2023-04-22T15:43:23.229Z,2.27
2023-04-22T15:45:27.563Z,2.50
2023-04-22T15:47:30.472Z,16.23
2023-04-22T15:49:37.984Z,10.83
2023-04-22T15:51:42.001Z,4.63
2023-04-22T15:53:45.507Z,2.40
2023-04-22T15:55:48.735Z,2.93
2023-04-22T15:57:51.592Z,7.30
2023-04-22T16:00:06.676Z,4.90
2023-04-22T16:02:19.957Z,3.93
2023-04-22T16:04:23.125Z,5.63
2023-04-22T16:06:25.997Z,2.00
2023-04-22T16:08:28.786Z,2.70
2023-04-22T16:10:31.544Z,2.20
2023-04-22T16:12:34.672Z,4.40
2023-04-22T16:14:37.548Z,2.10
2023-04-22T16:16:41.484Z,3.10
2023-04-22T16:18:45.776Z,3.80
2023-04-22T16:20:48.495Z,4.80
2023-04-22T16:22:51.297Z,5.17
2023-04-22T16:24:54.017Z,2.47
2023-04-22T16:26:56.765Z,2.60
2023-04-22T16:28:59.459Z,2.53
2023-04-22T16:31:02.272Z,2.27
2023-04-22T16:33:05.068Z,2.30
2023-04-22T16:35:11.376Z,3.13
2023-04-22T16:37:14.117Z,2.20
2023-04-22T16:39:17.620Z,2.73
2023-04-22T16:41:21.559Z,2.00
2023-04-22T16:43:24.317Z,2.10
2023-04-22T16:45:27.045Z,2.10
2023-04-22T16:47:29.781Z,2.27
2023-04-22T16:49:32.515Z,2.27
2023-04-22T16:51:36.880Z,1.77
2023-04-22T16:53:39.678Z,2.10
2023-04-22T16:55:43.395Z,2.20
2023-04-22T16:57:47.591Z,2.20
2023-04-22T16:59:50.386Z,2.10
2023-04-22T17:01:53.199Z,2.20
2023-04-22T17:03:56.825Z,2.40
2023-04-22T17:05:59.812Z,2.20
2023-04-22T17:08:03.935Z,2.00
2023-04-22T17:10:08.043Z,2.00
2023-04-22T17:12:10.969Z,1.97
2023-04-22T17:14:14.426Z,2.17
2023-04-22T17:16:17.209Z,2.10
2023-04-22T17:18:19.975Z,2.13
2023-04-22T17:20:24.379Z,2.30
2023-04-22T17:22:27.651Z,2.27
2023-04-22T17:24:31.687Z,2.30
2023-04-22T17:26:34.364Z,2.30
2023-04-22T17:28:37.108Z,2.33
2023-04-22T17:30:40.211Z,2.40
2023-04-22T17:32:42.904Z,2.03
2023-04-22T17:34:45.741Z,2.30
2023-04-22T17:36:48.570Z,2.30
2023-04-22T17:38:51.647Z,2.57
2023-04-22T17:40:56.000Z,2.43
2023-04-22T17:42:58.818Z,2.50
2023-04-22T17:45:01.876Z,2.40
2023-04-22T17:47:05.997Z,2.57
2023-04-22T17:49:10.075Z,2.50
2023-04-22T17:51:13.083Z,2.70
2023-04-22T17:53:16.087Z,2.30
2023-04-22T17:55:18.885Z,2.30
2023-04-22T17:57:22.961Z,2.23
2023-04-22T17:59:26.233Z,2.77
2023-04-22T18:01:30.008Z,2.43
2023-04-22T18:03:32.932Z,2.00
2023-04-22T18:05:35.734Z,11.03
2023-04-22T18:07:38.520Z,3.17
2023-04-22T18:09:41.662Z,2.57
2023-04-22T18:11:44.610Z,3.10
2023-04-22T18:13:48.841Z,2.60
2023-04-22T18:15:51.546Z,2.50
2023-04-22T18:17:54.417Z,2.57
2023-04-22T18:20:09.804Z,2.30
2023-04-22T18:22:20.070Z,2.70
2023-04-22T18:24:22.878Z,2.77
2023-04-22T18:26:25.752Z,2.07
2023-04-22T18:28:28.506Z,2.33
2023-04-22T18:30:32.931Z,2.17
2023-04-22T18:32:36.772Z,2.73
2023-04-22T18:34:39.868Z,2.70
2023-04-22T18:36:42.873Z,2.60
2023-04-22T18:38:45.776Z,2.40
2023-04-22T18:40:48.511Z,2.30
2023-04-22T18:42:51.352Z,2.30
2023-04-22T18:44:54.150Z,2.30
2023-04-22T18:46:58.435Z,2.13
2023-04-22T18:49:01.278Z,2.73
2023-04-22T18:51:04.018Z,2.20
2023-04-22T18:53:06.840Z,5.90
2023-04-22T18:55:10.629Z,2.73
2023-04-22T18:57:13.435Z,2.10
2023-04-22T18:59:16.209Z,3.67
2023-04-22T19:01:19.133Z,2.50
2023-04-22T19:03:23.345Z,2.50
2023-04-22T19:05:26.250Z,2.73
2023-04-22T19:07:28.969Z,5.47
2023-04-22T19:09:32.356Z,5.27
2023-04-22T19:11:35.246Z,5.33
2023-04-22T19:13:37.962Z,4.30
2023-04-22T19:15:40.777Z,3.83
2023-04-22T19:17:43.642Z,2.80
2023-04-22T19:19:47.768Z,2.40
2023-04-22T19:21:50.621Z,2.90
2023-04-22T19:23:53.488Z,3.10
2023-04-22T19:25:56.803Z,3.23
2023-04-22T19:27:59.555Z,3.23
2023-04-22T19:30:02.428Z,3.70
2023-04-22T19:32:05.306Z,4.50
2023-04-22T19:34:08.015Z,4.00
2023-04-22T19:36:12.210Z,3.50
2023-04-22T19:38:18.892Z,3.73
2023-04-22T19:40:22.720Z,4.17
2023-04-22T19:42:25.496Z,3.90
2023-04-22T19:44:28.179Z,4.50
2023-04-22T19:46:31.327Z,4.80
2023-04-22T19:48:35.009Z,3.70
2023-04-22T19:50:38.128Z,3.40
2023-04-22T19:52:46.321Z,3.73
2023-04-22T19:54:50.580Z,2.97
2023-04-22T19:56:54.921Z,3.43
2023-04-22T19:58:58.389Z,3.00
2023-04-22T20:01:01.364Z,2.80
2023-04-22T20:03:04.482Z,3.47
2023-04-22T20:05:08.631Z,2.73
2023-04-22T20:07:12.162Z,2.83
2023-04-22T20:09:17.046Z,3.90
2023-04-22T20:11:20.931Z,3.80
2023-04-22T20:13:24.196Z,3.97
2023-04-22T20:15:27.693Z,4.80
2023-04-22T20:17:31.391Z,4.60
2023-04-22T20:19:34.713Z,4.50
2023-04-22T20:21:41.092Z,5.30
2023-04-22T20:23:45.576Z,6.60
2023-04-22T20:25:50.911Z,5.77
2023-04-22T20:27:54.738Z,6.80
2023-04-22T20:29:58.582Z,8.17
2023-04-22T20:32:04.851Z,8.17
2023-04-22T20:34:08.387Z,6.20
2023-04-22T20:36:15.332Z,5.93
2023-04-22T20:38:19.574Z,5.03
2023-04-22T20:40:24.698Z,4.97
2023-04-22T20:42:29.480Z,4.70
2023-04-22T20:44:32.626Z,4.50
2023-04-22T20:46:35.466Z,3.43
2023-04-22T20:48:38.332Z,3.67
2023-04-22T20:50:41.016Z,4.13
2023-04-22T20:52:43.793Z,5.90
2023-04-22T20:54:51.139Z,4.10
2023-04-22T20:56:54.242Z,4.57
2023-04-22T20:58:58.978Z,7.43
2023-04-22T21:01:02.089Z,7.30
2023-04-22T21:03:08.992Z,13.10
2023-04-22T21:05:16.312Z,10.00
2023-04-22T21:07:21.750Z,9.27
2023-04-22T21:09:29.085Z,7.37
2023-04-22T21:11:32.529Z,3.93
2023-04-22T21:13:37.193Z,4.50
2023-04-22T21:15:42.717Z,7.37
2023-04-22T21:17:56.630Z,7.03
2023-04-22T21:20:02.671Z,6.10
2023-04-22T21:22:06.991Z,5.03
2023-04-22T21:24:13.015Z,6.53
2023-04-22T21:26:18.028Z,12.57
2023-04-22T21:28:21.862Z,10.33
2023-04-22T21:30:25.793Z,12.10
2023-04-22T21:32:30.044Z,8.50
2023-04-22T21:34:35.596Z,12.00
2023-04-22T21:36:39.702Z,18.50
2023-04-22T21:38:43.235Z,19.37
2023-04-22T21:40:47.607Z,39.43
2023-04-22T21:42:51.015Z,21.00
2023-04-22T21:44:54.215Z,15.33
2023-04-22T21:46:57.290Z,26.23
2023-04-22T21:49:02.113Z,23.03
2023-04-22T21:51:05.237Z,13.87
2023-04-22T21:53:08.369Z,7.57
2023-04-22T21:55:11.656Z,6.23
2023-04-22T21:57:14.963Z,5.60
2023-04-22T21:59:17.841Z,4.30
2023-04-22T22:01:20.934Z,4.10
2023-04-22T22:03:24.020Z,3.90
2023-04-22T22:05:28.406Z,4.03
2023-04-22T22:07:31.418Z,3.70
2023-04-22T22:09:34.381Z,3.60
2023-04-22T22:11:37.165Z,3.80
2023-04-22T22:13:40.468Z,3.53
2023-04-22T22:15:43.218Z,3.70
2023-04-22T22:17:46.490Z,3.90
2023-04-22T22:19:49.340Z,3.87
2023-04-22T22:21:53.549Z,3.63
2023-04-22T22:23:57.394Z,3.63
2023-04-22T22:26:00.126Z,3.40
2023-04-22T22:28:02.936Z,3.87
2023-04-22T22:30:06.442Z,3.80
2023-04-22T22:32:09.348Z,3.93
2023-04-22T22:34:12.701Z,3.87
2023-04-22T22:36:16.076Z,4.33
2023-04-22T22:38:20.252Z,4.67
2023-04-22T22:40:23.299Z,5.07
2023-04-22T22:42:26.272Z,6.33
2023-04-22T22:44:28.991Z,4.63
2023-04-22T22:46:31.797Z,4.60
2023-04-22T22:48:34.655Z,4.27
2023-04-22T22:50:37.823Z,4.30
2023-04-22T22:52:41.082Z,4.00
2023-04-22T22:54:45.441Z,3.63
2023-04-22T22:56:48.215Z,3.70
2023-04-22T22:58:51.077Z,3.80
2023-04-22T23:00:53.875Z,3.77
2023-04-22T23:02:56.985Z,3.40
2023-04-22T23:04:59.867Z,3.57
2023-04-22T23:07:02.630Z,3.37
2023-04-22T23:09:05.912Z,3.37
2023-04-22T23:11:10.205Z,3.07
2023-04-22T23:13:12.917Z,2.50
2023-04-22T23:15:15.685Z,2.60
2023-04-22T23:17:18.466Z,2.47
2023-04-22T23:19:21.847Z,2.67
2023-04-22T23:21:24.957Z,2.63
2023-04-22T23:23:29.504Z,2.80
2023-04-22T23:25:32.749Z,2.53
2023-04-22T23:27:37.441Z,2.77
2023-04-22T23:29:40.770Z,2.77
2023-04-22T23:31:45.138Z,2.27
2023-04-22T23:33:50.643Z,2.63
2023-04-22T23:35:54.286Z,2.37
2023-04-22T23:37:58.723Z,2.30
2023-04-22T23:40:01.515Z,2.30
2023-04-22T23:42:04.314Z,2.27
2023-04-22T23:44:08.450Z,2.33
2023-04-22T23:46:11.862Z,2.53
2023-04-22T23:48:14.620Z,2.27
2023-04-22T23:50:19.081Z,2.13
2023-04-22T23:52:21.917Z,2.20
2023-04-22T23:54:25.157Z,2.20
2023-04-22T23:56:28.433Z,2.40
2023-04-22T23:58:31.658Z,2.27
